createdAt,value
2023-03-23T16:00:40.528Z,12.32
2023-03-23T16:03:50.090Z,12.38
2023-03-23T16:06:59.307Z,12.42
2023-03-23T16:10:04.438Z,12.64
2023-03-23T16:13:07.907Z,12.60
2023-03-23T16:16:18.341Z,12.46
2023-03-23T16:19:24.578Z,12.34
2023-03-23T16:22:28.333Z,12.18
2023-03-23T16:25:33.300Z,12.09
2023-03-23T16:28:36.956Z,11.96
2023-03-23T16:31:40.783Z,11.84
2023-03-23T16:34:44.439Z,11.82
2023-03-23T16:37:49.217Z,11.74
2023-03-23T16:40:54.260Z,11.62
2023-03-23T16:43:57.774Z,11.58
2023-03-23T16:47:01.440Z,11.53
2023-03-23T16:50:08.167Z,11.44
2023-03-23T16:53:13.315Z,11.40
2023-03-23T16:56:18.299Z,11.33
2023-03-23T16:59:21.875Z,11.29
2023-03-23T17:02:29.794Z,11.26
2023-03-23T17:05:33.687Z,11.13
2023-03-23T17:08:37.411Z,11.09
2023-03-23T17:11:42.465Z,11.02
2023-03-23T17:14:45.998Z,10.96
2023-03-23T17:17:49.688Z,10.89
2023-03-23T17:20:54.988Z,10.74
2023-03-23T17:23:58.591Z,10.80
2023-03-23T17:27:03.567Z,10.72
2023-03-23T17:30:10.815Z,10.61
2023-03-23T17:33:14.964Z,10.51
2023-03-23T17:36:19.403Z,10.51
2023-03-23T17:39:22.906Z,10.43
2023-03-23T17:42:28.104Z,10.37
2023-03-23T17:45:31.666Z,10.30
2023-03-23T17:48:36.249Z,10.25
2023-03-23T17:51:39.872Z,10.17
2023-03-23T17:54:43.488Z,10.14
2023-03-23T17:57:48.493Z,10.11
2023-03-23T18:00:52.148Z,10.12
2023-03-23T18:03:55.742Z,10.03
2023-03-23T18:07:00.425Z,10.08
2023-03-23T18:10:04.379Z,10.11
2023-03-23T18:13:10.428Z,10.09
2023-03-23T18:16:14.332Z,10.15
2023-03-23T18:19:18.101Z,10.12
2023-03-23T18:22:21.702Z,10.18
2023-03-23T18:25:25.730Z,10.13
2023-03-23T18:28:31.085Z,10.08
2023-03-23T18:31:40.002Z,10.10
2023-03-23T18:34:44.053Z,10.16
2023-03-23T18:37:48.292Z,10.16
2023-03-23T18:40:51.830Z,10.03
2023-03-23T18:43:57.867Z,10.07
2023-03-23T18:47:01.542Z,10.10
2023-03-23T18:50:06.126Z,10.08
2023-03-23T18:53:09.715Z,10.02
2023-03-23T18:56:16.243Z,9.93
2023-03-23T18:59:23.995Z,9.90
2023-03-23T19:02:27.753Z,9.91
2023-03-23T19:05:31.843Z,9.87
2023-03-23T19:08:35.974Z,9.89
2023-03-23T19:11:39.691Z,9.88
2023-03-23T19:14:44.778Z,9.86
2023-03-23T19:17:48.604Z,9.75
2023-03-23T19:24:00.752Z,9.64
2023-03-23T19:27:04.633Z,9.67
2023-03-23T19:30:10.822Z,9.55
2023-03-23T19:33:15.802Z,9.54
2023-03-23T19:36:20.301Z,9.52
2023-03-23T19:39:25.199Z,9.43
2023-03-23T19:42:28.947Z,9.35
2023-03-23T19:45:34.219Z,9.32
2023-03-23T19:48:39.687Z,9.22
2023-03-23T19:51:43.549Z,9.31
2023-03-23T19:54:47.177Z,9.31
2023-03-23T19:57:51.423Z,9.25
2023-03-23T20:00:57.117Z,9.18
2023-03-23T20:04:04.850Z,9.12
2023-03-23T20:07:09.963Z,9.07
2023-03-23T20:10:13.729Z,9.15
2023-03-23T20:13:17.970Z,9.10
2023-03-23T20:16:22.970Z,9.13
2023-03-23T20:19:26.711Z,9.08
2023-03-23T20:22:30.338Z,9.30
2023-03-23T20:25:33.969Z,9.20
2023-03-23T20:28:39.130Z,9.23
2023-03-23T20:31:45.275Z,9.20
2023-03-23T20:34:49.551Z,9.20
2023-03-23T20:37:53.708Z,9.23
2023-03-23T20:40:58.448Z,9.35
2023-03-23T20:44:02.315Z,9.30
2023-03-23T20:47:08.711Z,9.27
2023-03-23T20:50:13.653Z,9.34
2023-03-23T20:53:17.359Z,9.42
2023-03-23T20:56:24.531Z,9.39
2023-03-23T20:59:29.049Z,9.48
2023-03-23T21:02:34.297Z,9.39
2023-03-23T21:05:37.783Z,9.47
2023-03-23T21:08:42.211Z,9.50
2023-03-23T21:11:47.340Z,9.47
2023-03-23T21:14:51.187Z,9.54
2023-03-23T21:17:56.354Z,9.59
2023-03-23T21:21:00.718Z,9.50
2023-03-23T21:24:04.555Z,9.58
2023-03-23T21:27:08.239Z,9.63
2023-03-23T21:30:12.478Z,9.52
2023-03-23T21:33:17.393Z,9.51
2023-03-23T21:36:21.061Z,9.55
2023-03-23T21:39:24.992Z,9.53
2023-03-23T21:42:31.103Z,9.52
2023-03-23T21:45:34.835Z,9.61
2023-03-23T21:48:41.410Z,9.61
2023-03-23T21:51:45.055Z,9.55
2023-03-23T21:54:48.819Z,9.65
2023-03-23T21:57:52.657Z,9.63
2023-03-23T22:00:57.043Z,9.66
2023-03-23T22:04:02.014Z,9.54
2023-03-23T22:07:05.771Z,9.69
2023-03-23T22:10:11.098Z,9.55
2023-03-23T22:13:17.994Z,9.68
2023-03-23T22:16:22.975Z,9.64
2023-03-23T22:19:28.055Z,9.62
2023-03-23T22:22:31.656Z,9.67
2023-03-23T22:25:36.292Z,9.61
2023-03-23T22:28:40.849Z,9.67
2023-03-23T22:31:45.568Z,9.72
2023-03-23T22:34:52.150Z,9.70
2023-03-23T22:37:56.257Z,9.78
2023-03-23T22:41:02.489Z,9.85
2023-03-23T22:44:08.972Z,9.93
2023-03-23T22:47:12.972Z,9.79
2023-03-23T22:50:18.927Z,9.99
2023-03-23T22:53:23.464Z,9.90
2023-03-23T22:56:27.169Z,9.86
2023-03-23T22:59:30.749Z,9.82
2023-03-23T23:02:34.393Z,9.83
2023-03-23T23:05:43.833Z,9.82
2023-03-23T23:08:49.635Z,9.77
2023-03-23T23:11:53.153Z,9.76
2023-03-23T23:14:58.532Z,9.72
2023-03-23T23:18:02.854Z,9.79
2023-03-23T23:21:13.104Z,9.76
2023-03-23T23:24:17.097Z,9.69
2023-03-23T23:27:20.755Z,9.65
2023-03-23T23:30:24.379Z,9.69
2023-03-23T23:33:28.027Z,9.61
2023-03-23T23:36:33.776Z,9.66
2023-03-23T23:39:38.589Z,9.56
2023-03-23T23:42:43.034Z,9.58
2023-03-23T23:45:46.945Z,9.52
2023-03-23T23:48:50.572Z,9.56
2023-03-23T23:51:56.620Z,9.48
2023-03-23T23:55:00.401Z,9.47
2023-03-23T23:58:03.991Z,9.43
